Time;durP1;ratioP1;P1;durP2;ratioP2;P2;SDS_P1;SDS_P2;PMS_P1;PMS_P2;Temp;Humidity;BMP_temperature;BMP_pressure;BME280_temperature;BME280_humidity;BME280_pressure;Samples;Min_cycle;Max_cycle;Signal;HPM_P1;HPM_P2
2021/06/01 00:01:53;;;;;;;;;;;28.70;91.30;;;;;;1853758;75;20200;-91
2021/06/01 00:04:59;;;;;;;;;;;;;;;;;;;;;
2021/06/01 00:07:47;;;;;;;;;;;28.70;91.20;;;;;;1783513;77;20180;-90
2021/06/01 00:10:21;;;;;;;;;;;28.70;91.30;;;;;;1802298;77;20198;-90
2021/06/01 00:13:07;;;;;;;;;;;28.80;91.40;;;;;;1784197;77;20159;-92
2021/06/01 00:15:44;;;;;;;;;;;28.90;91.50;;;;;;1816981;77;20656;-90
2021/06/01 00:18:33;;;;;;;;;;;28.90;91.20;;;;;;1750050;80;20606;-89
2021/06/01 00:21:20;;;;;;;;;;;;;;;;;;;;;
2021/06/01 00:29:52;;;;;;;;;;;29.20;91.00;;;;;;1925465;73;20215;-88
2021/06/01 00:32:22;;;;;;;;;;;29.20;91.10;;;;;;1911173;74;20500;-90
2021/06/01 00:35:06;;;;;;;;;;;29.30;90.90;;;;;;1896826;75;20235;-90
2021/06/01 00:53:48;;;;;;;;;;;29.70;90.30;;;;;;1764325;80;20203;-89
2021/06/01 00:56:19;;;;;;;;;;;29.80;89.90;;;;;;1759636;80;20657;-89
2021/06/01 01:02:21;;;;;;;;;;;29.90;89.10;;;;;;1793133;80;20290;-90
2021/06/01 01:04:51;;;;;;;;;;;29.90;89.30;;;;;;1780037;80;20216;-91
2021/06/01 01:07:35;;;;;;;;;;;30.00;89.50;;;;;;1782654;79;20312;-92
2021/06/01 01:15:48;;;;;;;;;;;30.30;88.70;;;;;;1677800;84;20534;-88
2021/06/01 01:18:16;;;;;;;;;;;30.30;88.80;;;;;;1682536;82;20311;-91
2021/06/01 01:20:49;;;;;;;;;;;30.40;88.60;;;;;;1733474;81;20272;-79
2021/06/01 01:23:20;;;;;;;;;;;30.40;88.10;;;;;;1734384;81;20294;-82
2021/06/01 01:25:51;;;;;;;;;;;30.60;87.80;;;;;;1738293;81;20255;-80
2021/06/01 01:28:22;;;;;;;;;;;30.70;87.50;;;;;;1741209;81;20196;-80
2021/06/01 01:30:53;;;;;;;;;;;30.80;87.10;;;;;;1709707;83;20258;-81
2021/06/01 01:33:25;;;;;;;;;;;30.90;86.50;;;;;;1680039;84;20517;-79
2021/06/01 01:35:57;;;;;;;;;;;31.00;86.10;;;;;;1741407;81;20614;-79
2021/06/01 01:38:27;;;;;;;;;;;31.10;85.30;;;;;;1765715;77;20221;-79
2021/06/01 01:40:58;;;;;;;;;;;31.20;85.20;;;;;;1806196;77;20302;-79
2021/06/01 01:43:31;;;;;;;;;;;31.20;84.00;;;;;;1843249;75;20231;-80
2021/06/01 01:46:24;;;;;;;;;;;31.40;84.80;;;;;;1917321;75;20166;-79
2021/06/01 01:51:12;;;;;;;;;;;31.50;83.10;;;;;;1846963;76;20295;-81
2021/06/01 01:53:39;;;;;;;;;;;31.60;83.30;;;;;;1868144;76;20674;-80
2021/06/01 01:56:10;;;;;;;;;;;31.60;83.80;;;;;;1881981;75;20235;-80
2021/06/01 02:02:07;;;;;;;;;;;31.80;82.30;;;;;;1736569;81;20650;-79
2021/06/01 02:04:38;;;;;;;;;;;31.90;82.00;;;;;;1866682;74;20193;-79
2021/06/01 02:07:08;;;;;;;;;;;32.00;81.80;;;;;;1897303;74;20490;-80
2021/06/01 02:09:38;;;;;;;;;;;32.20;81.70;;;;;;1901991;74;20184;-80
2021/06/01 02:12:08;;;;;;;;;;;32.20;81.50;;;;;;1898339;74;20178;-80
2021/06/01 02:14:38;;;;;;;;;;;32.40;80.80;;;;;;1903065;74;20198;-81
2021/06/01 02:17:08;;;;;;;;;;;32.50;80.70;;;;;;1892061;74;20513;-81
2021/06/01 02:19:38;;;;;;;;;;;32.60;79.40;;;;;;1905401;74;20464;-80
2021/06/01 02:22:23;;;;;;;;;;;32.60;79.60;;;;;;1856679;76;20208;-80
2021/06/01 02:24:41;;;;;;;;;;;32.70;79.50;;;;;;1897131;74;20166;-80
2021/06/01 02:27:12;;;;;;;;;;;32.70;79.10;;;;;;1897079;75;20740;-80
2021/06/01 02:29:43;;;;;;;;;;;32.80;79.10;;;;;;1825700;76;20561;-81
2021/06/01 02:32:12;;;;;;;;;;;32.90;78.10;;;;;;1905435;74;20204;-80
2021/06/01 02:34:42;;;;;;;;;;;32.90;78.50;;;;;;1903576;74;20497;-80
2021/06/01 02:37:13;;;;;;;;;;;33.00;77.90;;;;;;1897821;74;20172;-81
2021/06/01 02:39:43;;;;;;;;;;;33.10;78.10;;;;;;1893426;74;20221;-81
2021/06/01 02:42:13;;;;;;;;;;;33.30;78.10;;;;;;1867949;76;20283;-81
2021/06/01 02:44:43;;;;;;;;;;;33.30;77.00;;;;;;1902307;75;20304;-82
2021/06/01 02:47:13;;;;;;;;;;;33.40;76.00;;;;;;1902209;74;20223;-80
2021/06/01 02:49:43;;;;;;;;;;;33.40;75.50;;;;;;1864879;75;20289;-80
2021/06/01 02:52:13;;;;;;;;;;;33.40;76.70;;;;;;1901356;74;20546;-80
2021/06/01 02:54:43;;;;;;;;;;;33.50;75.50;;;;;;1905731;74;20205;-79
2021/06/01 02:57:13;;;;;;;;;;;33.50;75.00;;;;;;1896344;74;20196;-79
2021/06/01 02:59:43;;;;;;;;;;;33.50;74.90;;;;;;1846329;74;20359;-79
2021/06/01 03:02:13;;;;;;;;;;;33.50;74.90;;;;;;1841691;77;20563;-79
2021/06/01 03:04:44;;;;;;;;;;;33.50;75.10;;;;;;1852645;75;20399;-78
2021/06/01 03:07:14;;;;;;;;;;;33.60;75.10;;;;;;1840651;75;20231;-76
2021/06/01 03:09:45;;;;;;;;;;;33.70;73.70;;;;;;1838347;76;20266;-78
2021/06/01 03:14:46;;;;;;;;;;;33.80;74.20;;;;;;1835254;76;20190;-80
2021/06/01 03:17:17;;;;;;;;;;;33.90;73.00;;;;;;1836134;76;20239;-79
2021/06/01 03:19:46;;;;;;;;;;;34.00;72.30;;;;;;1841862;76;20288;-79
2021/06/01 03:22:16;;;;;;;;;;;34.10;72.20;;;;;;1848330;76;20196;-79
2021/06/01 03:24:46;;;;;;;;;;;34.10;72.60;;;;;;1838097;77;20209;-80
2021/06/01 03:27:16;;;;;;;;;;;34.20;72.00;;;;;;1837068;76;20179;-80
2021/06/01 03:29:47;;;;;;;;;;;34.20;72.00;;;;;;1844408;76;20162;-79
2021/06/01 03:32:16;;;;;;;;;;;34.30;72.00;;;;;;1845559;76;20205;-79
2021/06/01 03:34:46;;;;;;;;;;;34.30;71.50;;;;;;1841520;76;20166;-80
2021/06/01 03:37:16;;;;;;;;;;;34.40;72.00;;;;;;1848599;77;20135;-79
2021/06/01 03:39:46;;;;;;;;;;;34.40;71.30;;;;;;1839279;75;20235;-79
2021/06/01 03:42:16;;;;;;;;;;;34.40;70.70;;;;;;1838841;76;20218;-79
2021/06/01 03:44:46;;;;;;;;;;;34.40;71.20;;;;;;1844881;76;20531;-80
2021/06/01 03:47:16;;;;;;;;;;;34.50;71.20;;;;;;1810670;78;20197;-79
2021/06/01 03:49:46;;;;;;;;;;;34.60;72.50;;;;;;1804043;78;20208;-79
2021/06/01 03:52:16;;;;;;;;;;;34.70;72.80;;;;;;1843813;76;20471;-80
2021/06/01 03:54:45;;;;;;;;;;;34.80;70.80;;;;;;1849501;76;20440;-79
2021/06/01 03:57:15;;;;;;;;;;;34.70;70.20;;;;;;1839831;76;20254;-80
2021/06/01 03:59:45;;;;;;;;;;;34.60;70.60;;;;;;1878676;74;20204;-77
2021/06/01 04:02:14;;;;;;;;;;;34.60;70.60;;;;;;1867789;76;20216;-78
2021/06/01 04:04:45;;;;;;;;;;;34.50;71.00;;;;;;1883991;75;20248;-79
2021/06/01 04:07:14;;;;;;;;;;;34.50;69.90;;;;;;1896407;74;20396;-78
2021/06/01 04:09:44;;;;;;;;;;;34.40;69.60;;;;;;1893305;74;20206;-79
2021/06/01 04:12:14;;;;;;;;;;;34.40;70.40;;;;;;1868068;75;20164;-78
2021/06/01 04:14:44;;;;;;;;;;;34.50;70.00;;;;;;1860333;75;20226;-78
2021/06/01 04:17:14;;;;;;;;;;;34.60;70.30;;;;;;1899579;74;20173;-77
2021/06/01 04:19:44;;;;;;;;;;;34.70;68.60;;;;;;1898953;74;20556;-78
2021/06/01 04:22:14;;;;;;;;;;;34.80;68.90;;;;;;1850670;76;20213;-77
2021/06/01 04:24:44;;;;;;;;;;;34.90;66.70;;;;;;1896793;74;20247;-81
2021/06/01 04:27:14;;;;;;;;;;;35.00;66.60;;;;;;1897733;74;20485;-80
2021/06/01 04:29:44;;;;;;;;;;;35.00;65.70;;;;;;1887856;74;20227;-81
2021/06/01 04:32:13;;;;;;;;;;;35.00;67.40;;;;;;1896214;74;20236;-79
2021/06/01 04:34:44;;;;;;;;;;;35.00;68.10;;;;;;1853746;76;20211;-81
2021/06/01 04:37:14;;;;;;;;;;;35.10;67.90;;;;;;1905265;74;20204;-81
2021/06/01 04:39:45;;;;;;;;;;;35.10;66.90;;;;;;1864455;75;20161;-80
2021/06/01 04:42:15;;;;;;;;;;;35.20;67.20;;;;;;1901150;74;20457;-80
2021/06/01 04:44:45;;;;;;;;;;;35.30;67.30;;;;;;1897496;74;20184;-80
2021/06/01 04:47:16;;;;;;;;;;;35.30;66.60;;;;;;1889348;74;20216;-79
2021/06/01 04:49:46;;;;;;;;;;;35.30;64.90;;;;;;1901254;74;20241;-81
2021/06/01 04:52:15;;;;;;;;;;;35.30;64.70;;;;;;1870593;76;20173;-80
2021/06/01 04:54:45;;;;;;;;;;;35.30;64.40;;;;;;1863734;76;20168;-81
2021/06/01 04:57:15;;;;;;;;;;;35.40;63.70;;;;;;1903809;74;20481;-82
2021/06/01 04:59:45;;;;;;;;;;;35.40;63.10;;;;;;1852898;75;20183;-80
2021/06/01 05:02:16;;;;;;;;;;;35.40;64.40;;;;;;1893180;74;20236;-81
2021/06/01 05:04:47;;;;;;;;;;;35.20;65.80;;;;;;1894337;74;20221;-80
2021/06/01 05:07:17;;;;;;;;;;;35.20;66.30;;;;;;1896033;74;20208;-79
2021/06/01 05:09:48;;;;;;;;;;;35.30;66.60;;;;;;1892407;74;20182;-81
2021/06/01 05:12:17;;;;;;;;;;;35.20;66.40;;;;;;1887045;74;20256;-77
2021/06/01 05:14:47;;;;;;;;;;;35.10;67.20;;;;;;1853664;75;20211;-79
2021/06/01 05:17:17;;;;;;;;;;;35.20;67.00;;;;;;1897539;74;20185;-78
2021/06/01 05:19:47;;;;;;;;;;;35.30;66.50;;;;;;1902513;74;20209;-78
2021/06/01 05:22:19;;;;;;;;;;;35.40;66.70;;;;;;1866818;75;20386;-78
2021/06/01 05:24:49;;;;;;;;;;;35.50;65.40;;;;;;1902352;74;20214;-79
2021/06/01 05:27:19;;;;;;;;;;;35.70;64.40;;;;;;1900058;74;20208;-78
2021/06/01 05:29:53;;;;;;;;;;;35.80;63.70;;;;;;1900289;74;20255;-78
2021/06/01 05:34:58;;;;;;;;;;;36.00;62.80;;;;;;1900130;74;20193;-80
2021/06/01 05:37:22;;;;;;;;;;;36.10;62.60;;;;;;1900845;75;20212;-81
2021/06/01 05:39:52;;;;;;;;;;;36.10;63.10;;;;;;1899980;75;20286;-80
2021/06/01 05:42:22;;;;;;;;;;;36.00;63.40;;;;;;1861124;76;20166;-81
2021/06/01 05:44:52;;;;;;;;;;;35.80;63.70;;;;;;1857942;75;20181;-79
2021/06/01 05:47:22;;;;;;;;;;;35.80;64.10;;;;;;1860403;75;20174;-80
2021/06/01 05:49:51;;;;;;;;;;;35.70;63.60;;;;;;1853611;75;20196;-77
2021/06/01 05:52:21;;;;;;;;;;;35.70;64.20;;;;;;1881246;74;20190;-79
2021/06/01 05:54:51;;;;;;;;;;;35.70;63.80;;;;;;1900692;74;20177;-75
2021/06/01 05:57:21;;;;;;;;;;;35.80;63.10;;;;;;1879764;74;20188;-79
2021/06/01 05:59:51;;;;;;;;;;;35.70;63.30;;;;;;1891310;74;20304;-83
2021/06/01 06:02:21;;;;;;;;;;;35.70;62.40;;;;;;1878207;74;20240;-80
2021/06/01 06:04:51;;;;;;;;;;;35.80;63.60;;;;;;1892874;74;20206;-78
2021/06/01 06:07:20;;;;;;;;;;;35.80;62.10;;;;;;1887879;74;20153;-77
2021/06/01 06:09:50;;;;;;;;;;;35.80;61.80;;;;;;1895672;74;20466;-80
2021/06/01 06:12:20;;;;;;;;;;;35.70;61.90;;;;;;1886480;74;20352;-79
2021/06/01 06:14:50;;;;;;;;;;;35.60;61.60;;;;;;1898168;74;20197;-78
2021/06/01 06:17:21;;;;;;;;;;;35.70;61.50;;;;;;1893734;74;20236;-79
2021/06/01 06:19:51;;;;;;;;;;;35.80;60.40;;;;;;1861472;74;20196;-83
2021/06/01 06:22:22;;;;;;;;;;;35.90;58.90;;;;;;1830904;76;20206;-78
2021/06/01 06:24:52;;;;;;;;;;;35.90;58.60;;;;;;1832735;77;20234;-80
2021/06/01 06:27:22;;;;;;;;;;;36.00;58.50;;;;;;1888246;74;20474;-80
2021/06/01 06:29:52;;;;;;;;;;;36.10;58.20;;;;;;1895191;74;20201;-78
2021/06/01 06:32:21;;;;;;;;;;;36.10;58.20;;;;;;1845087;76;20443;-78
2021/06/01 06:34:54;;;;;;;;;;;36.10;56.90;;;;;;1886285;74;20473;-79
2021/06/01 06:37:23;;;;;;;;;;;36.00;56.90;;;;;;1854230;75;20188;-79
2021/06/01 06:39:54;;;;;;;;;;;35.90;58.30;;;;;;1880331;74;20273;-80
2021/06/01 06:42:24;;;;;;;;;;;35.80;58.00;;;;;;1892764;74;20202;-80
2021/06/01 06:44:54;;;;;;;;;;;35.80;58.10;;;;;;1846521;75;20162;-80
2021/06/01 06:47:40;;;;;;;;;;;35.70;58.30;;;;;;1887242;74;20244;-78
2021/06/01 06:49:57;;;;;;;;;;;35.60;59.20;;;;;;1889961;74;20208;-81
2021/06/01 06:52:26;;;;;;;;;;;35.60;59.90;;;;;;1856542;76;20208;-80
2021/06/01 06:54:56;;;;;;;;;;;35.70;60.20;;;;;;1835153;78;20164;-80
2021/06/01 06:57:27;;;;;;;;;;;35.80;60.10;;;;;;1891107;75;20241;-79
2021/06/01 06:59:57;;;;;;;;;;;35.80;59.60;;;;;;1867917;75;20442;-82
2021/06/01 07:02:28;;;;;;;;;;;35.80;60.70;;;;;;1898871;74;20115;-80
2021/06/01 07:04:58;;;;;;;;;;;35.80;61.10;;;;;;1888694;75;20602;-79
2021/06/01 07:07:28;;;;;;;;;;;35.90;60.40;;;;;;1871357;76;20170;-79
2021/06/01 07:10:01;;;;;;;;;;;35.90;60.80;;;;;;1869039;76;20192;-79
2021/06/01 07:12:30;;;;;;;;;;;35.90;60.60;;;;;;1832352;77;20179;-79
2021/06/01 07:15:03;;;;;;;;;;;36.00;61.10;;;;;;1804382;79;20131;-80
2021/06/01 07:17:33;;;;;;;;;;;36.00;60.50;;;;;;1808482;78;20182;-81
2021/06/01 07:20:05;;;;;;;;;;;35.90;60.40;;;;;;1874176;75;20209;-79
2021/06/01 07:22:34;;;;;;;;;;;35.90;60.90;;;;;;1874289;75;20220;-79
2021/06/01 07:25:04;;;;;;;;;;;35.80;61.50;;;;;;1864524;75;20211;-80
2021/06/01 07:27:34;;;;;;;;;;;35.80;61.60;;;;;;1873503;75;20477;-79
2021/06/01 07:30:05;;;;;;;;;;;35.80;60.90;;;;;;1876490;75;20219;-81
2021/06/01 07:32:35;;;;;;;;;;;35.80;61.10;;;;;;1870454;75;20161;-82
2021/06/01 07:35:06;;;;;;;;;;;35.80;60.30;;;;;;1870510;76;20204;-81
2021/06/01 07:37:36;;;;;;;;;;;35.90;59.50;;;;;;1876624;76;20166;-81
2021/06/01 07:40:06;;;;;;;;;;;35.90;61.00;;;;;;1873510;75;20696;-81
2021/06/01 07:42:36;;;;;;;;;;;35.90;59.90;;;;;;1860651;76;20550;-81
2021/06/01 07:45:06;;;;;;;;;;;35.90;60.50;;;;;;1869133;76;20167;-80
2021/06/01 07:47:36;;;;;;;;;;;36.00;59.80;;;;;;1874601;75;20220;-80
2021/06/01 07:50:06;;;;;;;;;;;36.10;59.50;;;;;;1874844;76;20186;-80
2021/06/01 07:52:36;;;;;;;;;;;36.20;58.40;;;;;;1872148;76;20360;-81
2021/06/01 07:55:06;;;;;;;;;;;36.20;58.20;;;;;;1867021;76;20233;-80
2021/06/01 07:57:37;;;;;;;;;;;36.20;56.50;;;;;;1868348;75;20209;-80
2021/06/01 08:00:09;;;;;;;;;;;36.30;57.00;;;;;;1873307;75;20282;-80
2021/06/01 08:02:39;;;;;;;;;;;36.20;57.40;;;;;;1863759;75;20504;-80
2021/06/01 08:05:10;;;;;;;;;;;36.20;56.70;;;;;;1879058;75;20194;-81
2021/06/01 08:07:39;;;;;;;;;;;36.20;56.70;;;;;;1871275;75;20168;-79
2021/06/01 08:10:09;;;;;;;;;;;36.20;56.90;;;;;;1870638;76;20765;-80
2021/06/01 08:12:39;;;;;;;;;;;36.20;57.50;;;;;;1872005;75;20202;-79
2021/06/01 08:15:09;;;;;;;;;;;36.20;57.80;;;;;;1871869;76;20221;-80
2021/06/01 08:17:40;;;;;;;;;;;36.20;58.10;;;;;;1871319;76;20228;-80
2021/06/01 08:20:15;;;;;;;;;;;36.30;58.20;;;;;;1876747;75;20155;-81
2021/06/01 08:22:42;;;;;;;;;;;36.20;58.30;;;;;;1877026;75;20331;-78
2021/06/01 08:25:12;;;;;;;;;;;36.20;58.50;;;;;;1870245;76;20279;-83
2021/06/01 08:27:42;;;;;;;;;;;36.20;58.10;;;;;;1870720;75;20867;-81
2021/06/01 08:30:12;;;;;;;;;;;36.20;57.90;;;;;;1874137;75;20576;-83
2021/06/01 08:32:42;;;;;;;;;;;36.10;57.90;;;;;;1873108;76;20236;-82
2021/06/01 08:35:13;;;;;;;;;;;36.10;57.30;;;;;;1870621;76;20198;-85
2021/06/01 08:37:43;;;;;;;;;;;36.10;57.90;;;;;;1877785;75;20201;-84
2021/06/01 08:40:13;;;;;;;;;;;36.10;57.50;;;;;;1871539;75;20216;-84
2021/06/01 08:42:43;;;;;;;;;;;36.10;57.20;;;;;;1873480;75;20170;-85
2021/06/01 08:45:14;;;;;;;;;;;36.20;57.50;;;;;;1832998;77;20173;-83
2021/06/01 08:47:44;;;;;;;;;;;36.20;56.80;;;;;;1789079;79;20258;-82
2021/06/01 08:50:15;;;;;;;;;;;36.20;57.10;;;;;;1839925;77;20220;-81
2021/06/01 08:52:44;;;;;;;;;;;36.10;57.20;;;;;;1868634;76;20200;-81
2021/06/01 08:55:15;;;;;;;;;;;36.10;57.10;;;;;;1871490;76;20250;-82
2021/06/01 08:57:45;;;;;;;;;;;36.00;57.50;;;;;;1878625;75;20292;-80
2021/06/01 09:00:15;;;;;;;;;;;36.00;57.80;;;;;;1873800;75;20198;-80
2021/06/01 09:02:45;;;;;;;;;;;36.00;58.50;;;;;;1877987;75;20292;-79
2021/06/01 09:05:19;;;;;;;;;;;36.00;58.40;;;;;;1867997;75;20221;-79
2021/06/01 09:07:58;;;;;;;;;;;36.00;58.20;;;;;;1876393;75;20210;-79
2021/06/01 09:13:04;;;;;;;;;;;35.90;58.00;;;;;;1865492;75;20212;-78
2021/06/01 09:22:59;;;;;;;;;;;35.60;59.00;;;;;;1871209;75;20188;-78
2021/06/01 09:28:02;;;;;;;;;;;35.60;59.70;;;;;;1867667;75;20141;-79
2021/06/01 09:30:32;;;;;;;;;;;35.60;59.80;;;;;;1872060;76;20625;-80
2021/06/01 09:33:04;;;;;;;;;;;35.60;59.90;;;;;;1867744;76;20137;-81
2021/06/01 09:35:35;;;;;;;;;;;35.50;59.70;;;;;;1869016;75;20168;-79
2021/06/01 09:38:05;;;;;;;;;;;35.50;59.60;;;;;;1866341;75;20220;-77
2021/06/01 09:40:35;;;;;;;;;;;35.50;59.50;;;;;;1865580;76;20200;-80
2021/06/01 09:43:06;;;;;;;;;;;35.60;58.50;;;;;;1871833;75;20257;-78
2021/06/01 09:45:36;;;;;;;;;;;35.60;58.40;;;;;;1874346;75;20133;-79
2021/06/01 09:48:08;;;;;;;;;;;35.60;58.50;;;;;;1869794;76;20218;-79
2021/06/01 09:53:15;;;;;;;;;;;35.60;59.00;;;;;;1873419;75;20176;-80
2021/06/01 09:55:46;;;;;;;;;;;35.50;58.80;;;;;;1876240;75;20178;-80
2021/06/01 09:58:16;;;;;;;;;;;35.50;58.60;;;;;;1871986;75;20171;-83
2021/06/01 10:00:47;;;;;;;;;;;35.50;58.60;;;;;;1867469;76;20201;-79
2021/06/01 10:03:20;;;;;;;;;;;35.50;59.10;;;;;;1869263;76;20161;-80
2021/06/01 10:05:50;;;;;;;;;;;35.50;59.50;;;;;;1882124;75;20190;-82
2021/06/01 10:08:25;;;;;;;;;;;35.50;59.70;;;;;;1868554;76;20263;-80
2021/06/01 10:10:53;;;;;;;;;;;35.40;59.10;;;;;;1868768;76;20225;-79
2021/06/01 10:13:25;;;;;;;;;;;35.40;59.30;;;;;;1871007;76;20205;-79
2021/06/01 10:15:56;;;;;;;;;;;35.40;58.50;;;;;;1865144;76;20448;-81
2021/06/01 10:18:29;;;;;;;;;;;35.40;59.20;;;;;;1874656;75;20252;-81
2021/06/01 10:20:58;;;;;;;;;;;35.40;59.40;;;;;;1881389;75;20125;-80
2021/06/01 10:23:33;;;;;;;;;;;35.40;59.50;;;;;;1878127;76;20230;-79
2021/06/01 10:26:01;;;;;;;;;;;35.30;59.50;;;;;;1867433;76;20163;-80
2021/06/01 10:28:39;;;;;;;;;;;35.30;59.40;;;;;;1874383;75;20276;-81
2021/06/01 10:31:05;;;;;;;;;;;35.20;59.20;;;;;;1879511;75;20273;-80
2021/06/01 10:33:36;;;;;;;;;;;35.20;59.40;;;;;;1872354;75;20182;-78
2021/06/01 10:49:21;;;;;;;;;;;35.10;59.90;;;;;;1866800;76;20208;-79
2021/06/01 10:51:27;;;;;;;;;;;35.10;60.10;;;;;;1873214;76;20133;-80
2021/06/01 10:53:52;;;;;;;;;;;35.10;59.80;;;;;;1870567;76;20214;-83
2021/06/01 10:56:22;;;;;;;;;;;35.10;59.90;;;;;;1869970;76;20666;-80
2021/06/01 10:58:54;;;;;;;;;;;35.00;60.40;;;;;;1869901;75;20229;-79
2021/06/01 11:03:57;;;;;;;;;;;35.00;59.80;;;;;;1812383;78;20193;-80
2021/06/01 11:06:27;;;;;;;;;;;34.90;59.80;;;;;;1839120;77;20134;-80
2021/06/01 11:08:57;;;;;;;;;;;34.90;59.90;;;;;;1822533;78;20171;-80
2021/06/01 11:11:28;;;;;;;;;;;34.90;59.90;;;;;;1845997;77;20137;-81
2021/06/01 11:13:59;;;;;;;;;;;34.80;59.80;;;;;;1808518;79;20204;-80
2021/06/01 11:16:30;;;;;;;;;;;34.80;59.80;;;;;;1881552;75;20205;-79
2021/06/01 11:19:02;;;;;;;;;;;34.80;59.80;;;;;;1864831;76;20554;-80
2021/06/01 11:21:35;;;;;;;;;;;34.80;60.00;;;;;;1869489;76;20239;-80
2021/06/01 11:34:12;;;;;;;;;;;34.70;61.00;;;;;;1868715;76;20176;-80
2021/06/01 11:36:42;;;;;;;;;;;34.60;60.70;;;;;;1820868;78;20187;-79
2021/06/01 11:44:16;;;;;;;;;;;34.50;61.80;;;;;;1808746;78;20175;-80
2021/06/01 11:51:49;;;;;;;;;;;34.50;61.30;;;;;;1869874;76;20146;-81
2021/06/01 11:54:19;;;;;;;;;;;34.40;61.10;;;;;;1868262;76;20164;-80
2021/06/01 12:02:02;;;;;;;;;;;34.30;61.30;;;;;;1833330;77;20278;-80
2021/06/01 12:04:32;;;;;;;;;;;34.30;61.30;;;;;;1810021;78;20201;-80
2021/06/01 12:12:10;;;;;;;;;;;34.20;61.30;;;;;;1849803;77;20300;-79
2021/06/01 12:17:17;;;;;;;;;;;34.20;61.10;;;;;;1846874;77;20202;-80
2021/06/01 12:19:42;;;;;;;;;;;34.20;61.50;;;;;;1847824;77;20164;-79
2021/06/01 12:22:12;;;;;;;;;;;34.20;61.50;;;;;;1840225;77;20208;-80
2021/06/01 12:24:42;;;;;;;;;;;34.20;61.60;;;;;;1842552;77;20236;-80
2021/06/01 12:27:27;;;;;;;;;;;34.20;61.70;;;;;;1849329;77;20397;-80
2021/06/01 12:32:17;;;;;;;;;;;34.10;61.50;;;;;;1840482;77;20209;-79
2021/06/01 12:42:42;;;;;;;;;;;34.00;61.60;;;;;;1851699;77;20177;-80
2021/06/01 12:44:55;;;;;;;;;;;34.00;61.60;;;;;;1842020;77;20185;-80
2021/06/01 13:13:31;;;;;;;;;;;33.80;62.70;;;;;;1873536;75;20215;-80
2021/06/01 13:48:21;;;;;;;;;;;33.60;65.00;;;;;;1868128;75;20544;-93
2021/06/01 13:55:45;;;;;;;;;;;33.50;65.80;;;;;;1832229;77;20181;-93
2021/06/01 14:00:51;;;;;;;;;;;33.50;66.20;;;;;;1811889;78;20172;-92
2021/06/01 14:36:47;;;;;;;;;;;33.20;68.60;;;;;;1889552;76;20115;-92
2021/06/01 15:49:47;;;;;;;;;;;32.70;71.70;;;;;;1831693;76;20206;-92
2021/06/01 16:23:14;;;;;;;;;;;32.60;73.00;;;;;;1964199;72;20206;-91
2021/06/01 17:03:48;;;;;;;;;;;32.10;77.20;;;;;;1930945;72;20501;-92
2021/06/01 17:06:02;;;;;;;;;;;32.00;77.00;;;;;;1961737;71;20236;-90
2021/06/01 17:13:17;;;;;;;;;;;32.00;77.60;;;;;;1888653;75;20175;-91
2021/06/01 17:15:48;;;;;;;;;;;32.00;78.00;;;;;;1918101;73;20438;-93
2021/06/01 17:31:02;;;;;;;;;;;31.70;78.20;;;;;;1916762;73;20215;-90
2021/06/01 17:36:04;;;;;;;;;;;31.70;78.60;;;;;;1930273;73;20501;-90
2021/06/01 17:38:35;;;;;;;;;;;31.60;78.40;;;;;;1941034;73;20497;-91
2021/06/01 17:41:07;;;;;;;;;;;31.60;78.80;;;;;;1925388;73;20238;-90
2021/06/01 17:43:39;;;;;;;;;;;31.60;78.90;;;;;;1914672;73;20134;-89
2021/06/01 17:46:12;;;;;;;;;;;31.60;79.10;;;;;;1925994;73;20161;-90
2021/06/01 17:48:55;;;;;;;;;;;31.50;79.20;;;;;;1914051;75;20209;-89
2021/06/01 17:51:15;;;;;;;;;;;31.50;79.40;;;;;;1907006;75;20153;-90
2021/06/01 17:53:47;;;;;;;;;;;31.50;79.60;;;;;;1899771;74;20186;-89
2021/06/01 17:56:18;;;;;;;;;;;31.50;79.70;;;;;;1885554;75;20133;-90
2021/06/01 17:58:48;;;;;;;;;;;31.50;79.70;;;;;;1919514;74;20404;-91
2021/06/01 18:01:18;;;;;;;;;;;31.40;80.50;;;;;;1921259;73;20263;-90
2021/06/01 18:06:21;;;;;;;;;;;31.40;79.60;;;;;;1920265;74;20208;-90
2021/06/01 18:09:08;;;;;;;;;;;31.30;79.60;;;;;;1909025;73;20598;-92
2021/06/01 18:11:45;;;;;;;;;;;31.30;79.50;;;;;;1882656;75;20124;-89
2021/06/01 19:24:45;;;;;;;;;;;30.40;83.20;;;;;;1921234;74;20241;-92
2021/06/01 19:50:00;;;;;;;;;;;30.20;84.80;;;;;;1886690;75;20129;-91
2021/06/01 19:52:29;;;;;;;;;;;30.20;84.90;;;;;;1885350;75;20298;-91
2021/06/01 19:55:01;;;;;;;;;;;30.20;85.10;;;;;;1922849;74;20124;-90
2021/06/01 19:57:30;;;;;;;;;;;30.20;85.00;;;;;;1907930;73;20525;-92
2021/06/01 20:00:02;;;;;;;;;;;30.10;85.20;;;;;;1883416;75;20227;-90
2021/06/01 20:02:33;;;;;;;;;;;30.10;85.30;;;;;;1924348;73;20669;-91
2021/06/01 20:05:04;;;;;;;;;;;30.10;85.50;;;;;;1882900;75;20141;-91
2021/06/01 20:07:33;;;;;;;;;;;30.10;85.50;;;;;;1917704;74;20215;-91
2021/06/01 20:10:04;;;;;;;;;;;30.00;85.40;;;;;;1904208;74;20171;-91
2021/06/01 20:12:34;;;;;;;;;;;30.00;85.60;;;;;;1886959;75;20154;-91
2021/06/01 20:15:05;;;;;;;;;;;30.00;85.40;;;;;;1886381;75;20205;-92
2021/06/01 20:17:36;;;;;;;;;;;30.10;85.20;;;;;;1883353;74;20613;-90
2021/06/01 20:20:07;;;;;;;;;;;30.00;85.40;;;;;;1932863;73;20128;-92
2021/06/01 20:22:40;;;;;;;;;;;30.00;85.10;;;;;;1933790;73;20575;-90
2021/06/01 20:25:10;;;;;;;;;;;30.00;85.10;;;;;;1914957;73;20118;-93
2021/06/01 20:27:41;;;;;;;;;;;30.10;85.60;;;;;;1894933;74;20263;-92
2021/06/01 20:30:12;;;;;;;;;;;30.10;85.00;;;;;;1907952;74;20223;-89
2021/06/01 20:35:16;;;;;;;;;;;30.20;84.50;;;;;;1918829;74;20547;-91
2021/06/01 20:37:46;;;;;;;;;;;30.20;84.50;;;;;;1908000;74;20198;-90
2021/06/01 20:40:18;;;;;;;;;;;30.20;84.70;;;;;;1920069;74;20802;-91
2021/06/01 20:42:52;;;;;;;;;;;30.20;84.50;;;;;;1918749;75;20130;-91
2021/06/01 20:45:40;;;;;;;;;;;30.30;84.60;;;;;;1939348;73;20146;-91
2021/06/01 20:48:14;;;;;;;;;;;30.30;85.00;;;;;;1945066;73;20518;-90
2021/06/01 20:50:46;;;;;;;;;;;30.20;84.70;;;;;;1873373;75;20197;-92
2021/06/01 20:53:16;;;;;;;;;;;30.20;85.10;;;;;;1923895;73;20118;-91
2021/06/01 20:55:47;;;;;;;;;;;30.10;85.30;;;;;;1947775;73;20346;-93
2021/06/01 20:58:21;;;;;;;;;;;30.00;85.60;;;;;;1953811;73;20189;-91
2021/06/01 21:00:50;;;;;;;;;;;29.90;85.80;;;;;;1899870;75;20207;-91
2021/06/01 21:03:23;;;;;;;;;;;29.90;85.80;;;;;;1887919;75;20163;-91
2021/06/01 21:05:54;;;;;;;;;;;29.90;86.20;;;;;;1883717;74;20125;-91
2021/06/01 21:08:24;;;;;;;;;;;29.90;86.50;;;;;;1946149;73;20176;-91
2021/06/01 21:10:58;;;;;;;;;;;29.90;86.50;;;;;;1903910;75;20221;-92
2021/06/01 21:13:27;;;;;;;;;;;29.80;86.60;;;;;;1955126;73;20246;-93
2021/06/01 21:15:58;;;;;;;;;;;29.80;86.80;;;;;;1958809;73;20154;-92
2021/06/01 21:18:47;;;;;;;;;;;29.80;86.80;;;;;;1914414;74;20218;-93
2021/06/01 21:21:16;;;;;;;;;;;29.70;87.00;;;;;;1916369;74;20464;-93
2021/06/01 21:23:46;;;;;;;;;;;29.70;86.90;;;;;;1913381;74;20234;-91
2021/06/01 21:26:16;;;;;;;;;;;29.70;87.10;;;;;;1935793;72;20125;-91
2021/06/01 21:28:46;;;;;;;;;;;29.70;87.30;;;;;;1927483;74;20148;-93
2021/06/01 21:31:16;;;;;;;;;;;29.70;87.20;;;;;;1906335;74;20211;-91
2021/06/01 21:33:47;;;;;;;;;;;29.70;87.60;;;;;;1913717;75;20249;-91
2021/06/01 21:36:18;;;;;;;;;;;29.60;87.70;;;;;;1909559;74;20192;-92
2021/06/01 21:38:49;;;;;;;;;;;29.60;87.90;;;;;;1959997;70;20399;-94
2021/06/01 21:41:18;;;;;;;;;;;29.50;88.10;;;;;;1953163;72;20231;-93
2021/06/01 21:43:50;;;;;;;;;;;29.50;88.10;;;;;;1985006;72;20118;-92
2021/06/01 21:46:20;;;;;;;;;;;29.50;88.60;;;;;;1976362;72;20181;-92
2021/06/01 21:48:51;;;;;;;;;;;29.40;88.70;;;;;;1961558;72;20374;-93
2021/06/01 21:51:22;;;;;;;;;;;29.40;88.70;;;;;;1986070;72;20166;-91
2021/06/01 21:53:52;;;;;;;;;;;29.40;88.80;;;;;;1987255;72;20185;-94
2021/06/01 21:56:22;;;;;;;;;;;29.30;89.20;;;;;;1978779;72;20189;-93
2021/06/01 21:58:51;;;;;;;;;;;29.30;89.30;;;;;;1983163;72;20147;-94
2021/06/01 22:01:21;;;;;;;;;;;29.30;89.10;;;;;;1987108;70;20520;-93
2021/06/01 22:03:52;;;;;;;;;;;29.30;89.20;;;;;;1987368;72;20547;-93
2021/06/01 22:06:22;;;;;;;;;;;29.30;88.90;;;;;;1978134;72;20157;-93
2021/06/01 22:08:52;;;;;;;;;;;29.30;88.60;;;;;;1982709;72;20255;-93
2021/06/01 22:11:22;;;;;;;;;;;29.40;88.70;;;;;;1965491;72;20209;-94
2021/06/01 22:13:52;;;;;;;;;;;29.40;88.90;;;;;;1955301;72;20193;-93
2021/06/01 22:16:25;;;;;;;;;;;29.40;88.80;;;;;;1973736;72;20212;-93
2021/06/01 22:18:55;;;;;;;;;;;29.40;88.90;;;;;;1986679;72;20176;-92
2021/06/01 22:21:26;;;;;;;;;;;29.30;89.00;;;;;;1939025;73;20192;-93
2021/06/01 22:23:58;;;;;;;;;;;29.30;89.30;;;;;;1928848;73;20129;-93
2021/06/01 22:26:29;;;;;;;;;;;29.30;89.40;;;;;;1922529;73;20152;-93
2021/06/01 22:29:00;;;;;;;;;;;29.30;89.60;;;;;;1920879;73;20303;-94
2021/06/01 22:31:32;;;;;;;;;;;29.20;89.80;;;;;;1918430;73;20499;-95
2021/06/01 22:34:03;;;;;;;;;;;29.20;89.80;;;;;;1906318;74;20193;-93